Posted by: Patrick | April 2, 2010

Flight 4/2/2010 – Stalls, Slow flight, Steep Turn

Today I pre-flight N733AM at 8:30
Beautiful day for flying in southern california.

Here is the weather info for the day:
-KWHP 012347Z 19010G15KT 25SM SCT040 17/
-KBUR 021353Z AUTO 00000KT 10SM CLR 08/03 A3007
KBUR Forecast Weather
-KBUR 021120Z 0212/0312 12006KT P6SM SKC FM022100 18008KT P6SM SCT200 FM030300 VRB03KT P6SM SCT200

We practiced all 4 maneuvers again :
-Steep turn
-Stalls
-Departure Stalls – power-on stalls
-Arrival Stalls -power-off stalls or reduced power stalls
-Accelerated Stalls
-Slow Flight
-Slip Sliding

This is my Flight GPS track :

Flight Time : 1.3 h

Advertisements

Leave a Reply

Fill in your details below or click an icon to log in:

WordPress.com Logo

You are commenting using your WordPress.com account. Log Out / Change )

Twitter picture

You are commenting using your Twitter account. Log Out / Change )

Facebook photo

You are commenting using your Facebook account. Log Out / Change )

Google+ photo

You are commenting using your Google+ account. Log Out / Change )

Connecting to %s

Categories

%d bloggers like this: